Lumberton Municipal Airport Lumberton US
ICAO: KLBT
IATA: LBT
Category: Medium
Scheduled Services: No

Elevation: 126 ft
TransAlt. 18000 ft.

Airport Communications:
FAYETTEVILLE APP/DEP:133
ASOS:134.775
CTAF/UNICOM:122.8

KLBT Zoom In..

Runways:

(A) RW 05 length 5502 ft width 150 ft
ILS 108.95 / hdg 53

(B) RW 13 length 5003 ft width 150 ft
---- / hdg 133

(C) RW 23 length 5502 ft width 150 ft
---- / hdg 233

(D) RW 31 length 5003 ft width 150 ft
---- / hdg 313

Location; KLBT
Day. 26 / Time. 03.54 Zulu
* Altimeter: 30.02
* Temperature: 22° c. 71.6°f.
* Wind from: 000° Speed 00 kn.
Dewpoint: 20° c.
Visibility: 10 Statute Miles.
Clouds: Clear (automated report).

KLBT 260354Z AUTO 00000KT 10SM CLR 22/20 A3002 RMK AO2 SLP163 T02220200


Wind - Calm.

 
 
jpsmedia.com for Web Design SOUNDCLOUD worldairports.se 2018   terms of use